createdAt,value
2023-05-06T00:00:16.260Z,49.54
2023-05-06T00:02:43.159Z,49.95
2023-05-06T00:05:10.153Z,50.23
2023-05-06T00:07:37.090Z,50.07
2023-05-06T00:10:04.568Z,50.48
2023-05-06T00:12:31.540Z,50.82
2023-05-06T00:14:58.515Z,50.69
2023-05-06T00:17:25.335Z,50.63
2023-05-06T00:19:52.455Z,50.59
2023-05-06T00:22:21.578Z,50.20
2023-05-06T00:24:48.548Z,50.41
2023-05-06T00:27:15.313Z,50.27
2023-05-06T00:29:42.023Z,50.33
2023-05-06T00:32:08.832Z,50.33
2023-05-06T00:34:35.666Z,50.62
2023-05-06T00:37:03.860Z,49.80
2023-05-06T00:39:30.735Z,49.97
2023-05-06T00:42:06.908Z,50.22
2023-05-06T00:44:33.716Z,50.54
2023-05-06T00:47:04.465Z,50.79
2023-05-06T00:49:31.798Z,50.73
2023-05-06T00:51:59.177Z,51.05
2023-05-06T00:54:26.943Z,51.26
2023-05-06T00:56:54.465Z,51.21
2023-05-06T00:59:22.619Z,51.32
2023-05-06T01:01:53.979Z,51.02
2023-05-06T01:04:24.065Z,51.62
2023-05-06T01:07:02.504Z,51.26
2023-05-06T01:09:41.899Z,51.18
2023-05-06T01:12:29.436Z,51.58
2023-05-06T01:15:08.781Z,51.45
2023-05-06T01:17:40.006Z,51.96
2023-05-06T01:20:10.692Z,51.66
2023-05-06T01:22:38.770Z,51.77
2023-05-06T01:25:06.808Z,52.07
2023-05-06T01:27:33.723Z,52.31
2023-05-06T01:30:01.333Z,51.06
2023-05-06T01:32:40.031Z,52.37
2023-05-06T01:35:31.714Z,52.46
2023-05-06T01:38:01.425Z,52.33
2023-05-06T01:40:30.354Z,52.28
2023-05-06T01:42:57.577Z,52.73
2023-05-06T01:45:27.845Z,53.17
2023-05-06T01:47:55.684Z,52.98
2023-05-06T01:50:22.788Z,53.57
2023-05-06T01:52:59.724Z,53.95
2023-05-06T01:55:27.126Z,53.67
2023-05-06T01:57:54.903Z,53.82
2023-05-06T02:00:22.016Z,54.09
2023-05-06T02:02:50.571Z,54.36
2023-05-06T02:05:17.716Z,54.52
2023-05-06T02:07:48.761Z,54.42
2023-05-06T02:10:15.797Z,54.52
2023-05-06T02:12:49.002Z,54.35
2023-05-06T02:15:15.866Z,54.09
2023-05-06T02:17:43.836Z,54.76
2023-05-06T02:20:10.912Z,54.88
2023-05-06T02:22:37.862Z,55.11
2023-05-06T02:25:05.027Z,54.82
2023-05-06T02:27:31.864Z,54.90
2023-05-06T02:29:58.610Z,54.73
2023-05-06T02:32:25.342Z,54.80
2023-05-06T02:34:53.938Z,54.99
2023-05-06T02:37:22.412Z,54.94
2023-05-06T02:39:52.224Z,55.13
2023-05-06T02:42:19.105Z,54.95
2023-05-06T02:44:45.980Z,54.80
2023-05-06T02:47:13.147Z,54.85
2023-05-06T02:49:39.984Z,55.08
2023-05-06T02:52:06.944Z,55.30
2023-05-06T02:54:33.941Z,55.43
2023-05-06T02:57:01.433Z,55.85
2023-05-06T02:59:28.154Z,55.24
2023-05-06T03:01:55.047Z,55.37
2023-05-06T03:04:22.420Z,55.59
2023-05-06T03:06:49.228Z,54.99
2023-05-06T03:09:16.175Z,55.60
2023-05-06T03:11:42.930Z,55.30
2023-05-06T03:14:09.989Z,56.04
2023-05-06T03:16:37.086Z,55.37
2023-05-06T03:19:04.134Z,55.89
2023-05-06T03:21:32.236Z,56.14
2023-05-06T03:23:59.316Z,56.03
2023-05-06T03:26:28.502Z,56.54
2023-05-06T03:28:55.987Z,55.97
2023-05-06T03:31:23.223Z,56.24
2023-05-06T03:33:50.775Z,56.42
2023-05-06T03:36:18.307Z,56.62
2023-05-06T03:38:47.669Z,56.34
2023-05-06T03:41:14.700Z,56.35
2023-05-06T03:43:41.473Z,55.76
2023-05-06T03:46:08.678Z,55.83
2023-05-06T03:48:36.877Z,56.23
2023-05-06T03:51:07.231Z,56.06
2023-05-06T03:53:34.163Z,55.89
2023-05-06T03:56:04.656Z,55.98
2023-05-06T03:58:32.787Z,56.15
2023-05-06T04:01:01.079Z,56.09
2023-05-06T04:03:28.767Z,56.22
2023-05-06T04:05:55.779Z,55.60
2023-05-06T04:08:25.883Z,55.61
2023-05-06T04:10:53.568Z,55.10
2023-05-06T04:13:30.955Z,55.15
2023-05-06T04:16:00.239Z,54.84
2023-05-06T04:18:37.537Z,54.44
2023-05-06T04:21:08.401Z,54.73
2023-05-06T04:23:37.232Z,54.77
2023-05-06T04:26:04.514Z,54.27
2023-05-06T04:28:33.516Z,54.14
2023-05-06T04:31:02.269Z,54.14
2023-05-06T04:33:39.067Z,54.39
2023-05-06T04:36:09.980Z,54.54
2023-05-06T04:38:39.109Z,54.77
2023-05-06T04:41:06.201Z,54.52
2023-05-06T04:43:33.334Z,54.08
2023-05-06T04:46:08.452Z,54.07
2023-05-06T04:48:37.986Z,54.45
2023-05-06T04:51:07.069Z,53.50
2023-05-06T04:53:34.193Z,52.61
2023-05-06T04:56:01.124Z,53.51
2023-05-06T04:58:30.124Z,52.97
2023-05-06T05:00:58.160Z,51.91
2023-05-06T05:03:25.447Z,51.84
2023-05-06T05:05:55.316Z,51.48
2023-05-06T05:08:22.197Z,52.03
2023-05-06T05:10:49.366Z,51.17
2023-05-06T05:13:21.041Z,51.57
2023-05-06T05:15:49.213Z,51.26
2023-05-06T05:18:19.548Z,50.17
2023-05-06T05:20:47.816Z,50.81
2023-05-06T05:23:14.824Z,49.25
2023-05-06T05:25:43.870Z,49.83
2023-05-06T05:28:10.914Z,49.41
2023-05-06T05:30:38.899Z,49.16
2023-05-06T05:33:06.726Z,48.90
2023-05-06T05:35:34.416Z,48.72
2023-05-06T05:38:01.300Z,48.50
2023-05-06T05:40:28.935Z,47.88
2023-05-06T05:42:56.356Z,48.78
2023-05-06T05:45:34.712Z,47.21
2023-05-06T05:48:01.768Z,47.37
2023-05-06T05:50:44.252Z,46.87
2023-05-06T05:53:14.008Z,45.65
2023-05-06T05:56:05.615Z,46.31
2023-05-06T05:58:35.151Z,45.91
2023-05-06T06:01:04.252Z,45.35
2023-05-06T06:03:32.724Z,45.27
2023-05-06T06:06:05.977Z,45.92
2023-05-06T06:08:36.617Z,42.83
2023-05-06T06:11:07.857Z,43.70
2023-05-06T06:13:39.814Z,42.93
2023-05-06T06:16:07.903Z,42.18
2023-05-06T06:18:34.786Z,44.36
2023-05-06T06:21:02.024Z,43.63
2023-05-06T06:23:28.949Z,42.85
2023-05-06T06:25:55.736Z,41.85
2023-05-06T06:28:22.724Z,44.17
2023-05-06T06:30:49.634Z,42.32
2023-05-06T06:33:17.464Z,42.76
2023-05-06T06:35:46.201Z,43.27
2023-05-06T06:38:13.176Z,41.65
2023-05-06T06:40:39.947Z,41.14
2023-05-06T06:43:06.760Z,40.70
2023-05-06T06:45:56.874Z,41.32
2023-05-06T06:48:23.814Z,41.89
2023-05-06T06:50:50.782Z,41.08
2023-05-06T06:53:17.596Z,41.14
2023-05-06T06:55:45.650Z,40.58
2023-05-06T06:58:14.978Z,39.83
2023-05-06T07:00:43.955Z,38.28
2023-05-06T07:03:19.221Z,39.34
2023-05-06T07:05:49.421Z,39.22
2023-05-06T07:08:21.289Z,37.90
2023-05-06T07:10:48.524Z,36.71
2023-05-06T07:13:15.558Z,35.27
2023-05-06T07:15:45.088Z,36.47
2023-05-06T07:18:15.114Z,37.58
2023-05-06T07:20:47.130Z,37.52
2023-05-06T07:23:15.973Z,35.15
2023-05-06T07:25:44.950Z,35.84
2023-05-06T07:28:14.567Z,34.98
2023-05-06T07:30:41.990Z,34.10
2023-05-06T07:33:08.893Z,31.83
2023-05-06T07:35:41.211Z,32.54
2023-05-06T07:38:08.156Z,33.72
2023-05-06T07:40:34.908Z,35.31
2023-05-06T07:43:02.624Z,36.04
2023-05-06T07:45:29.657Z,35.18
2023-05-06T07:47:56.724Z,33.85
2023-05-06T07:50:23.734Z,35.17
2023-05-06T07:52:52.973Z,33.92
2023-05-06T07:55:22.819Z,32.52
2023-05-06T07:57:50.075Z,34.31
2023-05-06T08:00:17.408Z,33.38
2023-05-06T08:02:47.793Z,35.22
2023-05-06T08:05:18.153Z,38.14
2023-05-06T08:07:47.584Z,34.20
2023-05-06T08:10:14.385Z,34.19
2023-05-06T08:12:41.569Z,33.91
2023-05-06T08:15:12.556Z,36.18
2023-05-06T08:17:40.046Z,33.95
2023-05-06T08:20:07.575Z,34.97
2023-05-06T08:22:34.351Z,34.05
2023-05-06T08:25:01.485Z,32.40
2023-05-06T08:27:28.376Z,33.80
2023-05-06T08:29:55.298Z,33.75
2023-05-06T08:32:22.212Z,32.29
2023-05-06T08:34:49.117Z,31.16
2023-05-06T08:37:15.938Z,30.95
2023-05-06T08:39:42.749Z,33.07
2023-05-06T08:42:11.481Z,34.20
2023-05-06T08:44:38.863Z,33.77
2023-05-06T08:47:06.425Z,33.73
2023-05-06T08:49:33.366Z,32.16
2023-05-06T08:52:06.391Z,32.54
2023-05-06T08:54:37.996Z,28.99
2023-05-06T08:57:12.181Z,31.80
2023-05-06T08:59:42.645Z,31.07
2023-05-06T09:02:11.243Z,31.94
2023-05-06T09:04:41.819Z,33.03
2023-05-06T09:07:08.559Z,31.25
2023-05-06T09:09:35.856Z,33.79
2023-05-06T09:12:03.212Z,34.32
2023-05-06T09:14:29.932Z,34.14
2023-05-06T09:16:56.777Z,31.43
2023-05-06T09:19:24.235Z,28.97
2023-05-06T09:21:53.749Z,27.33
2023-05-06T09:24:21.058Z,26.49
2023-05-06T09:26:47.966Z,26.43
2023-05-06T09:29:15.935Z,26.00
2023-05-06T09:31:49.720Z,26.00
2023-05-06T09:34:17.887Z,28.10
2023-05-06T09:36:44.738Z,27.61
2023-05-06T09:39:11.502Z,29.07
2023-05-06T09:41:38.518Z,28.19
2023-05-06T09:44:06.185Z,30.18
2023-05-06T09:46:34.360Z,31.14
2023-05-06T09:49:02.846Z,31.43
2023-05-06T09:51:32.554Z,30.63
2023-05-06T09:54:01.081Z,31.15
2023-05-06T09:56:32.115Z,30.11
2023-05-06T09:59:01.286Z,30.22
2023-05-06T10:01:36.953Z,30.17
2023-05-06T10:04:08.944Z,29.76
2023-05-06T10:06:42.451Z,30.50
2023-05-06T10:09:10.610Z,29.40
2023-05-06T10:11:41.257Z,31.54
2023-05-06T10:14:13.392Z,28.12
2023-05-06T10:16:51.682Z,30.06
2023-05-06T10:19:23.079Z,30.88
2023-05-06T10:21:57.972Z,29.70
2023-05-06T10:24:34.189Z,31.65
2023-05-06T10:27:06.526Z,30.22
2023-05-06T10:29:37.972Z,27.93
2023-05-06T10:32:07.108Z,28.37
2023-05-06T10:34:41.421Z,26.08
2023-05-06T10:37:10.151Z,25.96
2023-05-06T10:39:39.901Z,24.82
2023-05-06T10:42:12.168Z,25.00
2023-05-06T10:44:58.179Z,26.06
2023-05-06T10:47:27.676Z,25.67
2023-05-06T10:50:20.069Z,26.77
2023-05-06T10:52:50.080Z,28.17
2023-05-06T10:55:32.202Z,28.79
2023-05-06T10:58:06.192Z,27.79
2023-05-06T11:00:34.329Z,27.74
2023-05-06T11:03:18.677Z,27.46
2023-05-06T11:05:50.283Z,26.73
2023-05-06T11:08:26.473Z,25.95
2023-05-06T11:10:54.525Z,23.65
2023-05-06T11:13:29.383Z,20.63
2023-05-06T11:16:00.244Z,18.77
2023-05-06T11:18:27.925Z,20.54
2023-05-06T11:21:02.978Z,18.05
2023-05-06T11:23:42.228Z,18.19
2023-05-06T11:26:10.508Z,20.07
2023-05-06T11:28:38.718Z,19.86
2023-05-06T11:31:05.702Z,18.81
2023-05-06T11:33:33.953Z,14.08
2023-05-06T11:36:01.697Z,13.52
2023-05-06T11:38:48.120Z,12.90
2023-05-06T11:41:17.532Z,9.78
2023-05-06T11:43:49.992Z,8.62
2023-05-06T11:46:21.488Z,8.29
2023-05-06T11:48:53.255Z,8.08
2023-05-06T11:51:23.687Z,7.77
2023-05-06T11:53:52.039Z,7.50
2023-05-06T11:56:21.444Z,8.77
2023-05-06T11:58:50.218Z,9.79
2023-05-06T12:01:16.972Z,11.28
2023-05-06T12:03:46.372Z,9.75
2023-05-06T12:06:13.392Z,9.53
2023-05-06T12:08:44.338Z,7.10
2023-05-06T12:11:16.401Z,7.15
2023-05-06T12:13:43.400Z,5.79
2023-05-06T12:16:12.014Z,6.13
2023-05-06T12:18:39.222Z,7.43
2023-05-06T12:21:08.869Z,10.33
2023-05-06T12:23:35.715Z,11.97
2023-05-06T12:26:05.452Z,14.04
2023-05-06T12:28:33.682Z,15.42
2023-05-06T12:31:17.441Z,15.62
2023-05-06T12:33:50.551Z,13.95
2023-05-06T12:36:20.832Z,11.17
2023-05-06T12:38:55.801Z,10.01
2023-05-06T12:41:25.307Z,8.61
2023-05-06T12:43:57.916Z,8.88
2023-05-06T12:46:26.933Z,10.31
2023-05-06T12:49:00.602Z,12.13
2023-05-06T12:51:28.873Z,12.40
2023-05-06T12:53:55.830Z,14.03
2023-05-06T12:56:23.087Z,11.64
2023-05-06T12:59:02.427Z,11.28
2023-05-06T13:01:29.474Z,9.32
2023-05-06T13:03:59.319Z,9.08
2023-05-06T13:06:26.207Z,8.90
2023-05-06T13:08:53.116Z,6.98
2023-05-06T13:11:22.136Z,7.46
2023-05-06T13:13:48.990Z,7.32
2023-05-06T13:16:16.021Z,10.35
2023-05-06T13:18:42.958Z,11.21
2023-05-06T13:21:12.805Z,9.80
2023-05-06T13:23:46.688Z,9.41
2023-05-06T13:26:17.412Z,9.46
2023-05-06T13:28:44.792Z,10.03
2023-05-06T13:31:11.618Z,8.27
2023-05-06T13:33:38.513Z,10.11
2023-05-06T13:36:05.934Z,10.99
2023-05-06T13:38:34.938Z,11.57
2023-05-06T13:41:09.351Z,13.00
2023-05-06T13:43:38.707Z,14.37
2023-05-06T13:46:05.679Z,15.96
2023-05-06T13:48:33.694Z,15.56
2023-05-06T13:51:05.824Z,17.66
2023-05-06T13:53:33.829Z,19.06
2023-05-06T13:56:02.983Z,16.95
2023-05-06T13:58:29.761Z,17.18
2023-05-06T14:00:58.776Z,18.81
2023-05-06T14:03:25.931Z,18.00
2023-05-06T14:05:52.814Z,15.17
2023-05-06T14:08:19.985Z,14.82
2023-05-06T14:10:47.001Z,17.91
2023-05-06T14:13:13.869Z,19.98
2023-05-06T14:15:43.771Z,18.98
2023-05-06T14:18:13.842Z,20.54
2023-05-06T14:20:40.721Z,17.14
2023-05-06T14:23:07.518Z,19.12
2023-05-06T14:25:34.504Z,20.82
2023-05-06T14:28:01.302Z,18.69
2023-05-06T14:30:31.088Z,15.03
2023-05-06T14:32:58.768Z,16.03
2023-05-06T14:35:25.713Z,14.60
2023-05-06T14:37:57.718Z,16.09
2023-05-06T14:40:24.715Z,16.86
2023-05-06T14:42:53.567Z,15.81
2023-05-06T14:45:21.128Z,16.27
2023-05-06T14:47:48.111Z,16.96
2023-05-06T14:50:15.104Z,16.84
2023-05-06T14:52:42.092Z,18.72
2023-05-06T14:55:10.968Z,19.67
2023-05-06T14:57:38.055Z,19.95
2023-05-06T15:00:12.016Z,22.83
2023-05-06T15:02:42.001Z,21.04
2023-05-06T15:05:12.327Z,20.28
2023-05-06T15:07:39.397Z,22.63
2023-05-06T15:10:09.244Z,24.04
2023-05-06T15:12:37.176Z,23.58
2023-05-06T15:15:07.545Z,23.23
2023-05-06T15:17:39.382Z,23.42
2023-05-06T15:20:09.535Z,21.65
2023-05-06T15:22:39.702Z,21.42
2023-05-06T15:25:16.619Z,23.20
2023-05-06T15:27:49.572Z,22.87
2023-05-06T15:30:16.817Z,23.79
2023-05-06T15:32:47.578Z,24.60
2023-05-06T15:35:19.834Z,23.83
2023-05-06T15:37:48.033Z,24.52
2023-05-06T15:40:14.978Z,23.60
2023-05-06T15:42:47.569Z,24.25
2023-05-06T15:45:14.495Z,24.61
2023-05-06T15:47:41.430Z,25.05
2023-05-06T15:50:24.666Z,25.00
2023-05-06T15:52:58.201Z,26.18
2023-05-06T15:55:27.686Z,25.17
2023-05-06T15:58:00.935Z,24.44
2023-05-06T16:00:30.323Z,25.62
2023-05-06T16:02:59.802Z,25.67
2023-05-06T16:05:29.318Z,26.50
2023-05-06T16:08:02.293Z,26.51
2023-05-06T16:10:31.632Z,27.69
2023-05-06T16:12:58.482Z,26.56
2023-05-06T16:15:25.787Z,27.14
2023-05-06T16:17:52.512Z,27.04
2023-05-06T16:20:19.347Z,26.38
2023-05-06T16:22:53.118Z,26.36
2023-05-06T16:25:20.005Z,27.72
2023-05-06T16:27:49.478Z,27.15
2023-05-06T16:30:21.893Z,27.09
2023-05-06T16:32:48.835Z,27.05
2023-05-06T16:35:21.576Z,27.56
2023-05-06T16:37:48.374Z,28.21
2023-05-06T16:40:20.625Z,27.80
2023-05-06T16:42:50.247Z,29.21
2023-05-06T16:45:20.583Z,29.59
2023-05-06T16:47:48.291Z,29.19
2023-05-06T16:50:15.310Z,29.36
2023-05-06T16:52:46.334Z,29.12
2023-05-06T16:55:15.484Z,30.57
2023-05-06T16:57:42.290Z,30.42
2023-05-06T17:00:11.966Z,30.56
2023-05-06T17:02:39.712Z,32.01
2023-05-06T17:05:08.172Z,30.79
2023-05-06T17:07:35.182Z,31.16
2023-05-06T17:10:02.303Z,31.22
2023-05-06T17:12:29.188Z,32.35
2023-05-06T17:14:58.264Z,31.36
2023-05-06T17:17:30.956Z,31.08
2023-05-06T17:20:00.430Z,31.91
2023-05-06T17:22:27.195Z,32.09
2023-05-06T17:24:56.577Z,31.98
2023-05-06T17:27:23.560Z,31.37
2023-05-06T17:29:54.153Z,32.20
2023-05-06T17:32:20.987Z,32.39
2023-05-06T17:34:48.148Z,32.79
2023-05-06T17:37:15.015Z,32.03
2023-05-06T17:39:41.867Z,32.41
2023-05-06T17:42:09.501Z,32.89
2023-05-06T17:44:38.105Z,33.47
2023-05-06T17:47:05.010Z,34.04
2023-05-06T17:49:33.221Z,33.59
2023-05-06T17:52:01.676Z,33.97
2023-05-06T17:54:36.722Z,33.85
2023-05-06T17:57:06.704Z,33.64
2023-05-06T17:59:33.691Z,32.96
2023-05-06T18:02:00.885Z,33.75
2023-05-06T18:04:27.892Z,34.16
2023-05-06T18:06:54.841Z,34.32
2023-05-06T18:09:22.461Z,34.71
2023-05-06T18:11:49.698Z,35.02
2023-05-06T18:14:16.812Z,35.38
2023-05-06T18:16:44.163Z,35.46
2023-05-06T18:19:11.551Z,36.01
2023-05-06T18:21:39.768Z,36.04
2023-05-06T18:24:15.913Z,36.43
2023-05-06T18:26:45.731Z,37.09
2023-05-06T18:29:13.135Z,36.51
2023-05-06T18:31:39.907Z,37.79
2023-05-06T18:34:06.668Z,37.04
2023-05-06T18:36:35.087Z,36.92
2023-05-06T18:39:03.356Z,38.50
2023-05-06T18:41:32.542Z,39.58
2023-05-06T18:43:59.254Z,38.55
2023-05-06T18:46:27.528Z,37.96
2023-05-06T18:48:58.195Z,38.81
2023-05-06T18:51:27.284Z,38.53
2023-05-06T18:53:54.387Z,40.46
2023-05-06T18:56:23.742Z,39.71
2023-05-06T18:58:50.801Z,39.49
2023-05-06T19:01:17.955Z,38.55
2023-05-06T19:03:50.261Z,40.74
2023-05-06T19:06:17.713Z,38.94
2023-05-06T19:08:46.537Z,40.29
2023-05-06T19:11:19.056Z,39.69
2023-05-06T19:13:48.113Z,39.80
2023-05-06T19:16:17.659Z,40.52
2023-05-06T19:18:44.583Z,40.02
2023-05-06T19:21:13.563Z,40.40
2023-05-06T19:23:42.667Z,41.12
2023-05-06T19:26:11.263Z,40.85
2023-05-06T19:28:39.611Z,41.79
2023-05-06T19:31:09.614Z,40.95
2023-05-06T19:33:40.029Z,41.21
2023-05-06T19:36:10.426Z,41.63
2023-05-06T19:38:39.948Z,41.65
2023-05-06T19:41:08.413Z,42.52
2023-05-06T19:43:40.803Z,41.32
2023-05-06T19:46:08.535Z,41.12
2023-05-06T19:48:42.434Z,41.48
2023-05-06T19:51:09.364Z,42.28
2023-05-06T19:53:39.173Z,42.37
2023-05-06T19:56:10.485Z,42.33
2023-05-06T19:58:37.802Z,44.37
2023-05-06T20:01:05.336Z,42.69
2023-05-06T20:03:32.875Z,43.14
2023-05-06T20:05:59.981Z,43.62
2023-05-06T20:08:27.000Z,43.46
2023-05-06T20:10:54.224Z,42.54
2023-05-06T20:13:21.411Z,43.21
2023-05-06T20:15:51.928Z,44.68
2023-05-06T20:18:19.573Z,43.60
2023-05-06T20:20:48.798Z,43.82
2023-05-06T20:23:18.490Z,44.06
2023-05-06T20:25:48.599Z,43.49
2023-05-06T20:28:18.612Z,43.16
2023-05-06T20:30:50.995Z,43.75
2023-05-06T20:33:18.109Z,43.37
2023-05-06T20:35:45.789Z,42.81
2023-05-06T20:38:17.179Z,43.76
2023-05-06T20:40:44.230Z,43.61
2023-05-06T20:43:18.479Z,43.92
2023-05-06T20:45:45.440Z,43.75
2023-05-06T20:48:13.673Z,43.67
2023-05-06T20:50:42.098Z,43.56
2023-05-06T20:53:09.367Z,43.96
2023-05-06T20:55:36.377Z,44.16
2023-05-06T20:58:04.078Z,44.03
2023-05-06T21:00:35.403Z,43.99
2023-05-06T21:03:08.952Z,43.82
2023-05-06T21:05:42.675Z,43.72
2023-05-06T21:08:55.837Z,44.33
2023-05-06T21:11:23.130Z,43.36
2023-05-06T21:13:50.404Z,43.78
2023-05-06T21:16:17.361Z,43.95
2023-05-06T21:18:44.450Z,45.25
2023-05-06T21:21:15.032Z,44.82
2023-05-06T21:23:42.208Z,45.30
2023-05-06T21:29:48.066Z,44.02
2023-05-06T21:32:17.311Z,45.05
2023-05-06T21:34:47.123Z,44.90
2023-05-06T21:37:13.998Z,44.88
2023-05-06T21:39:40.982Z,44.74
2023-05-06T21:42:15.618Z,44.50
2023-05-06T21:44:42.485Z,44.01
2023-05-06T21:47:09.471Z,44.73
2023-05-06T21:49:36.164Z,44.58
2023-05-06T21:52:03.544Z,43.34
2023-05-06T21:54:36.679Z,44.05
2023-05-06T21:57:07.918Z,44.12
2023-05-06T21:59:36.799Z,43.93
2023-05-06T22:02:04.203Z,44.16
2023-05-06T22:04:31.244Z,44.54
2023-05-06T22:06:58.039Z,44.35
2023-05-06T22:09:24.964Z,44.67
2023-05-06T22:11:54.512Z,44.54
2023-05-06T22:14:26.942Z,44.60
2023-05-06T22:16:57.286Z,43.86
2023-05-06T22:19:27.914Z,44.93
2023-05-06T22:21:54.892Z,44.90
2023-05-06T22:24:21.712Z,44.53
2023-05-06T22:26:51.209Z,44.82
2023-05-06T22:29:18.011Z,44.77
2023-05-06T22:31:44.848Z,44.13
2023-05-06T22:34:11.623Z,45.16
2023-05-06T22:36:38.812Z,45.09
2023-05-06T22:39:05.666Z,44.40
2023-05-06T22:41:32.662Z,44.04
2023-05-06T22:44:02.036Z,44.03
2023-05-06T22:46:29.146Z,44.29
2023-05-06T22:49:03.548Z,44.31
2023-05-06T22:51:32.117Z,44.34
2023-05-06T22:54:01.006Z,44.49
2023-05-06T22:56:27.782Z,44.96
2023-05-06T22:58:58.972Z,45.97
2023-05-06T23:01:31.617Z,45.63
2023-05-06T23:04:04.464Z,45.17
2023-05-06T23:06:34.308Z,45.52
2023-05-06T23:09:03.291Z,46.33
2023-05-06T23:11:30.024Z,46.37
2023-05-06T23:13:56.759Z,46.29
2023-05-06T23:16:23.616Z,46.93
2023-05-06T23:18:50.578Z,46.23
2023-05-06T23:21:17.346Z,46.58
2023-05-06T23:23:44.103Z,46.18
2023-05-06T23:26:11.152Z,46.44
2023-05-06T23:28:40.286Z,46.91
2023-05-06T23:31:11.657Z,47.08
2023-05-06T23:33:38.478Z,47.22
2023-05-06T23:36:05.438Z,46.69
2023-05-06T23:38:32.204Z,47.21
2023-05-06T23:40:58.945Z,47.68
2023-05-06T23:43:25.889Z,47.31
2023-05-06T23:45:52.787Z,47.14
2023-05-06T23:48:19.579Z,48.05
2023-05-06T23:50:46.278Z,47.27
2023-05-06T23:53:13.481Z,47.48
2023-05-06T23:55:42.682Z,48.22
2023-05-06T23:58:09.559Z,47.17
